This is the latest recevied weather packets stored in our database for station/object KG5MMT-15. If no packets are shown the sender has not sent any weather packets the latest 10 day(s).
| Time | Temp. | Humidity | Pressure | Rain* | Wind** | Luminosity | Snow |
|---|---|---|---|---|---|---|---|
| 1778008637 | 15° C | 41% | 0 hPa | 0 mm | - | - | - |
| 1778008337 | 15.56° C | 41% | 0 hPa | 0 mm | - | - | - |
| 1778008037 | 15.56° C | 40% | 0 hPa | 0 mm | - | - | - |
| 1778007737 | 15° C | 40% | 0 hPa | 0 mm | - | - | - |
| 1778007437 | 15° C | 40% | 0 hPa | 0 mm | - | - | - |
| 1778007137 | 15° C | 40% | 0 hPa | 0 mm | - | - | - |
| 1778006837 | 15.56° C | 38% | 0 hPa | 0 mm | - | - | - |
| 1778006537 | 15.56° C | 38% | 0 hPa | 0 mm | - | - | - |
| 1778006237 | 16.11° C | 36% | 0 hPa | 0 mm | - | - | - |
| 1778005937 | 15.56° C | 39% | 0 hPa | 0 mm | - | - | - |
| 1778005637 | 15° C | 40% | 0 hPa | 0 mm | - | - | - |
| 1778005337 | 15° C | 39% | 0 hPa | 0 mm | - | - | - |
| 1778005037 | 16.11° C | 36% | 0 hPa | 0 mm | - | - | - |
| 1778004737 | 17.22° C | 35% | 0 hPa | 0 mm | - | - | - |
| 1778004437 | 16.67° C | 37% | 0 hPa | 0 mm | - | - | - |
| 1778004137 | 16.11° C | 37% | 0 hPa | 0 mm | - | - | - |
| 1778003837 | 16.11° C | 36% | 0 hPa | 0 mm | - | - | - |
| 1778003537 | 16.11° C | 37% | 0 hPa | 0 mm | - | - | - |
| 1778003237 | 16.11° C | 37% | 0 hPa | 0 mm | - | - | - |
| 1778002937 | 15.56° C | 37% | 0 hPa | 0 mm | - | - | - |
| 1778002637 | 15.56° C | 38% | 0 hPa | 0 mm | - | - | - |
| 1778002337 | 15.56° C | 37% | 0 hPa | 0 mm | - | - | - |
| 1778002037 | 16.11° C | 38% | 0 hPa | 0 mm | - | - | - |
| 1778001737 | 16.11° C | 37% | 0 hPa | 0 mm | - | - | - |
| 1778001437 | 15.56° C | 38% | 0 hPa | 0 mm | - | - | - |
* Rain latest hour (hover to see other rain measurements)
** Current wind speed in m/s (hover to see current wind gust speed)